createdAt,value
2019-04-20T00:01:05.373Z,99.90
2019-04-20T00:03:38.098Z,99.90
2019-04-20T00:06:03.421Z,99.90
2019-04-20T00:08:34.526Z,99.90
2019-04-20T00:11:07.323Z,99.90
2019-04-20T00:13:40.745Z,99.90
2019-04-20T00:15:59.913Z,99.90
2019-04-20T00:18:34.511Z,99.90
2019-04-20T00:21:17.515Z,99.90
2019-04-20T00:23:48.634Z,99.90
2019-04-20T00:27:04.428Z,99.90
2019-04-20T00:29:22.690Z,99.90
2019-04-20T00:31:45.958Z,99.90
2019-04-20T00:34:08.968Z,99.90
2019-04-20T00:36:31.217Z,99.90
2019-04-20T00:39:02.685Z,99.90
2019-04-20T00:41:27.904Z,99.90
2019-04-20T00:43:57.836Z,99.90
2019-04-20T00:46:33.998Z,99.90
2019-04-20T00:49:01.633Z,99.90
2019-04-20T00:51:39.420Z,99.90
2019-04-20T00:53:55.883Z,99.90
2019-04-20T00:56:22.428Z,99.90
2019-04-20T00:59:03.096Z,99.90
2019-04-20T01:01:44.006Z,99.90
2019-04-20T01:04:10.622Z,99.90
2019-04-20T01:06:57.526Z,99.90
2019-04-20T01:09:33.036Z,99.90
2019-04-20T01:12:05.149Z,99.90
2019-04-20T01:14:40.667Z,99.90
2019-04-20T01:17:11.693Z,99.90
2019-04-20T01:19:31.879Z,99.90
2019-04-20T01:22:06.707Z,99.90
2019-04-20T01:24:34.916Z,99.90
2019-04-20T01:27:00.805Z,99.90
2019-04-20T01:29:38.357Z,99.90
2019-04-20T01:32:14.175Z,99.90
2019-04-20T01:34:39.223Z,99.90
2019-04-20T01:37:12.068Z,99.90
2019-04-20T01:39:31.726Z,99.90
2019-04-20T01:41:54.042Z,99.90
2019-04-20T01:44:26.121Z,99.90
2019-04-20T01:46:55.232Z,99.90
2019-04-20T01:49:23.845Z,99.90
2019-04-20T01:51:57.384Z,99.90
2019-04-20T01:54:32.728Z,99.90
2019-04-20T01:57:21.411Z,99.90
2019-04-20T01:59:55.252Z,99.90
2019-04-20T02:02:35.531Z,99.90
2019-04-20T02:05:12.698Z,99.90
2019-04-20T02:07:40.011Z,99.90
2019-04-20T02:10:07.992Z,99.90
2019-04-20T02:12:38.852Z,99.90
2019-04-20T02:15:08.124Z,99.90
2019-04-20T02:18:03.690Z,99.90
2019-04-20T02:20:40.146Z,99.90
2019-04-20T02:23:01.624Z,99.90
2019-04-20T02:25:16.304Z,99.90
2019-04-20T02:27:51.376Z,99.90
2019-04-20T02:30:49.626Z,99.90
2019-04-20T02:33:43.173Z,99.90
2019-04-20T02:36:42.934Z,99.90
2019-04-20T02:39:31.031Z,99.90
2019-04-20T02:44:50.034Z,99.90
2019-04-20T02:54:53.539Z,99.90
2019-04-20T03:01:54.999Z,99.90
2019-04-20T03:04:10.753Z,99.90
2019-04-20T03:06:54.910Z,99.90
2019-04-20T03:09:31.529Z,99.90
2019-04-20T03:14:23.966Z,99.90
2019-04-20T03:17:15.365Z,99.90
2019-04-20T03:19:35.880Z,99.90
2019-04-20T03:22:17.689Z,99.90
2019-04-20T03:24:44.346Z,99.90
2019-04-20T03:27:24.781Z,99.90
2019-04-20T03:30:22.288Z,99.90
2019-04-20T03:33:06.909Z,99.90
2019-04-20T03:35:20.922Z,99.90
2019-04-20T03:37:48.511Z,99.90
2019-04-20T03:40:09.920Z,99.90
2019-04-20T03:42:24.955Z,99.90
2019-04-20T03:44:58.483Z,99.90
2019-04-20T03:47:30.528Z,99.90
2019-04-20T03:50:10.526Z,99.90
2019-04-20T03:53:02.796Z,99.90
2019-04-20T03:55:37.042Z,99.90
2019-04-20T03:58:15.318Z,99.90
2019-04-20T04:01:19.894Z,99.90
2019-04-20T04:03:59.243Z,99.90
2019-04-20T04:06:17.843Z,99.90
2019-04-20T04:08:47.061Z,99.90
2019-04-20T04:11:20.589Z,99.90
2019-04-20T04:13:35.688Z,99.90
2019-04-20T04:16:08.747Z,99.90
2019-04-20T04:18:39.048Z,99.90
2019-04-20T04:21:08.412Z,99.90
2019-04-20T04:23:48.736Z,99.90
2019-04-20T04:26:17.484Z,99.90
2019-04-20T04:28:44.888Z,99.90
2019-04-20T04:31:33.613Z,99.90
2019-04-20T04:34:14.751Z,99.90
2019-04-20T04:36:57.627Z,99.90
2019-04-20T04:39:36.943Z,99.90
2019-04-20T04:42:22.324Z,99.90
2019-04-20T04:44:42.294Z,99.90
2019-04-20T04:47:02.673Z,99.90
2019-04-20T04:49:34.162Z,99.90
2019-04-20T04:52:05.655Z,99.90
2019-04-20T04:54:37.999Z,99.90
2019-04-20T04:56:57.191Z,99.90
2019-04-20T04:59:25.686Z,99.90
2019-04-20T05:01:55.420Z,99.90
2019-04-20T05:05:05.574Z,99.90
2019-04-20T05:07:38.769Z,99.90
2019-04-20T05:09:54.899Z,99.90
2019-04-20T05:12:26.302Z,99.90
2019-04-20T05:15:02.251Z,99.90
2019-04-20T05:17:43.825Z,99.90
2019-04-20T05:20:13.424Z,99.90
2019-04-20T05:22:45.790Z,99.90
2019-04-20T05:25:59.591Z,99.90
2019-04-20T05:28:39.758Z,99.90
2019-04-20T05:30:59.841Z,99.90
2019-04-20T05:33:34.323Z,99.90
2019-04-20T05:36:14.695Z,99.90
2019-04-20T05:38:47.116Z,99.90
2019-04-20T05:41:32.716Z,99.90
2019-04-20T05:44:04.704Z,99.90
2019-04-20T05:46:36.218Z,99.90
2019-04-20T05:49:20.653Z,99.90
2019-04-20T05:51:40.896Z,99.90
2019-04-20T05:54:11.943Z,99.90
2019-04-20T05:56:40.231Z,99.90
2019-04-20T05:59:09.150Z,99.90
2019-04-20T06:01:57.665Z,99.90
2019-04-20T06:04:30.002Z,99.90
2019-04-20T06:06:49.336Z,99.90
2019-04-20T06:09:24.024Z,99.90
2019-04-20T06:12:02.682Z,99.90
2019-04-20T06:14:43.208Z,99.90
2019-04-20T06:17:23.444Z,99.90
2019-04-20T06:19:58.256Z,99.90
2019-04-20T06:22:35.190Z,99.90
2019-04-20T06:25:31.557Z,99.90
2019-04-20T06:27:52.478Z,99.90
2019-04-20T06:30:20.155Z,99.90
2019-04-20T06:34:05.547Z,99.90
2019-04-20T06:36:45.523Z,99.90
2019-04-20T06:42:08.422Z,99.90
2019-04-20T06:44:45.803Z,99.90
2019-04-20T06:47:18.822Z,96.60
2019-04-20T06:49:39.331Z,96.50
2019-04-20T06:52:34.425Z,96.70
2019-04-20T06:57:56.218Z,96.60
2019-04-20T07:02:48.608Z,96.70
2019-04-20T07:05:21.214Z,96.80
2019-04-20T07:07:53.419Z,96.60
2019-04-20T07:10:39.350Z,96.90
2019-04-20T07:13:01.720Z,97.20
2019-04-20T07:15:49.632Z,97.10
2019-04-20T07:18:29.896Z,98.10
2019-04-20T07:21:16.075Z,97.40
2019-04-20T07:23:57.575Z,95.70
2019-04-20T07:26:29.165Z,96.90
2019-04-20T07:28:58.842Z,95.60
2019-04-20T07:31:22.856Z,96.90
2019-04-20T07:33:56.821Z,97.10
2019-04-20T07:36:32.246Z,94.20
2019-04-20T07:39:00.615Z,95.50
2019-04-20T07:41:50.524Z,96.00
2019-04-20T07:44:10.640Z,95.40
2019-04-20T07:46:54.511Z,94.40
2019-04-20T07:49:15.985Z,94.40
2019-04-20T07:51:27.773Z,94.70
2019-04-20T07:54:16.709Z,92.30
2019-04-20T07:56:43.448Z,93.30
2019-04-20T07:58:55.286Z,92.60
2019-04-20T08:02:16.203Z,92.50
2019-04-20T08:04:52.168Z,91.90
2019-04-20T08:07:14.095Z,92.40
2019-04-20T08:10:06.470Z,90.80
2019-04-20T08:12:55.962Z,88.30
2019-04-20T08:15:30.055Z,89.50
2019-04-20T08:17:55.247Z,87.40
2019-04-20T08:20:20.360Z,89.30
2019-04-20T08:23:13.031Z,86.20
2019-04-20T08:25:35.092Z,88.70
2019-04-20T08:28:36.091Z,85.60
2019-04-20T08:31:29.755Z,86.20
2019-04-20T08:34:18.548Z,83.10
2019-04-20T08:36:43.250Z,85.30
2019-04-20T08:39:24.455Z,81.40
2019-04-20T08:41:31.610Z,83.20
2019-04-20T08:47:03.859Z,81.40
2019-04-20T08:49:35.524Z,80.20
2019-04-20T08:52:36.785Z,79.50
2019-04-20T08:54:45.601Z,79.60
2019-04-20T08:57:15.752Z,77.80
2019-04-20T08:59:47.042Z,78.50
2019-04-20T09:02:15.748Z,76.70
2019-04-20T09:04:58.490Z,74.70
2019-04-20T09:07:23.227Z,79.80
2019-04-20T09:10:10.043Z,77.90
2019-04-20T09:12:35.748Z,75.10
2019-04-20T09:14:48.797Z,75.90
2019-04-20T09:17:47.346Z,73.10
2019-04-20T09:20:22.764Z,72.80
2019-04-20T09:23:08.165Z,70.90
2019-04-20T09:28:20.096Z,70.60
2019-04-20T09:30:55.879Z,72.10
2019-04-20T09:33:48.666Z,67.70
2019-04-20T09:36:18.000Z,65.90
2019-04-20T09:39:01.045Z,62.90
2019-04-20T09:41:52.872Z,63.60
2019-04-20T09:43:58.338Z,62.10
2019-04-20T09:46:51.574Z,62.00
2019-04-20T09:49:23.891Z,59.70
2019-04-20T09:52:01.476Z,55.50
2019-04-20T09:54:40.388Z,58.80
2019-04-20T09:57:10.475Z,57.20
2019-04-20T09:59:35.730Z,51.40
2019-04-20T10:01:48.913Z,53.30
2019-04-20T10:04:17.422Z,51.20
2019-04-20T10:06:47.644Z,53.00
2019-04-20T10:09:21.253Z,51.60
2019-04-20T10:11:59.559Z,50.60
2019-04-20T10:14:27.186Z,50.40
2019-04-20T10:17:14.118Z,50.70
2019-04-20T10:19:43.057Z,51.40
2019-04-20T10:22:12.924Z,51.10
2019-04-20T10:25:00.363Z,48.00
2019-04-20T10:27:28.495Z,48.40
2019-04-20T10:29:55.919Z,47.90
2019-04-20T10:32:43.007Z,48.10
2019-04-20T10:35:08.987Z,48.20
2019-04-20T10:37:41.869Z,48.40
2019-04-20T10:40:11.474Z,49.50
2019-04-20T10:42:39.071Z,47.60
2019-04-20T10:45:10.913Z,49.00
2019-04-20T10:47:38.975Z,45.80
2019-04-20T10:50:07.219Z,44.60
2019-04-20T10:52:43.578Z,44.40
2019-04-20T10:55:22.013Z,41.70
2019-04-20T10:57:57.658Z,39.30
2019-04-20T11:00:47.234Z,36.40
2019-04-20T11:03:36.463Z,37.90
2019-04-20T11:06:04.799Z,37.30
2019-04-20T11:08:32.880Z,35.90
2019-04-20T11:11:25.200Z,34.10
2019-04-20T11:14:00.735Z,34.90
2019-04-20T11:16:26.402Z,32.30
2019-04-20T11:18:55.958Z,32.80
2019-04-20T11:21:24.588Z,34.60
2019-04-20T11:23:54.238Z,32.60
2019-04-20T11:26:26.452Z,30.90
2019-04-20T11:28:53.860Z,30.20
2019-04-20T11:31:21.996Z,30.00
2019-04-20T11:34:10.230Z,30.00
2019-04-20T11:36:50.815Z,27.30
2019-04-20T11:39:32.956Z,27.10
2019-04-20T11:42:03.547Z,25.60
2019-04-20T11:44:50.795Z,26.00
2019-04-20T11:47:21.720Z,25.50
2019-04-20T11:49:51.259Z,24.90
2019-04-20T11:52:21.379Z,24.20
2019-04-20T11:54:48.534Z,24.90
2019-04-20T11:57:17.360Z,24.10
2019-04-20T11:59:45.344Z,23.50
2019-04-20T12:02:34.398Z,24.00
2019-04-20T12:05:21.516Z,24.40
2019-04-20T12:08:14.022Z,23.70
2019-04-20T12:10:49.291Z,24.20
2019-04-20T12:13:18.350Z,25.00
2019-04-20T12:15:47.549Z,24.00
2019-04-20T12:18:15.771Z,24.00
2019-04-20T12:20:43.325Z,24.00
2019-04-20T12:23:10.689Z,24.00
2019-04-20T12:25:57.825Z,23.70
2019-04-20T12:28:27.544Z,23.90
2019-04-20T12:31:02.742Z,23.40
2019-04-20T12:33:24.489Z,23.70
2019-04-20T12:35:52.237Z,24.90
2019-04-20T12:38:19.607Z,24.60
2019-04-20T12:40:48.310Z,23.70
2019-04-20T12:43:29.844Z,24.30
2019-04-20T12:45:58.012Z,23.50
2019-04-20T12:48:45.369Z,24.60
2019-04-20T12:51:13.426Z,23.70
2019-04-20T12:53:42.599Z,23.10
2019-04-20T12:56:10.711Z,24.30
2019-04-20T12:58:57.834Z,23.90
2019-04-20T13:01:30.146Z,24.30
2019-04-20T13:04:02.461Z,24.60
2019-04-20T13:06:38.659Z,24.60
2019-04-20T13:09:10.869Z,24.70
2019-04-20T13:11:52.717Z,24.50
2019-04-20T13:15:34.257Z,24.10
2019-04-20T13:18:07.451Z,24.40
2019-04-20T13:20:36.238Z,25.50
2019-04-20T13:23:09.258Z,24.70
2019-04-20T13:25:37.098Z,26.60
2019-04-20T13:28:05.118Z,24.70
2019-04-20T13:30:35.532Z,25.30
2019-04-20T13:33:19.857Z,25.00
2019-04-20T13:35:48.110Z,25.00
2019-04-20T13:38:16.234Z,24.60
2019-04-20T13:41:04.069Z,25.10
2019-04-20T13:43:32.332Z,25.90
2019-04-20T13:46:00.777Z,26.70
2019-04-20T13:48:48.956Z,25.30
2019-04-20T13:51:16.785Z,25.30
2019-04-20T13:53:45.441Z,26.60
2019-04-20T13:56:14.047Z,26.60
2019-04-20T13:59:01.406Z,25.80
2019-04-20T14:01:52.858Z,26.10
2019-04-20T14:04:26.636Z,26.30
2019-04-20T14:06:55.431Z,25.90
2019-04-20T14:09:23.798Z,27.60
2019-04-20T14:12:10.292Z,26.80
2019-04-20T14:14:26.979Z,26.50
2019-04-20T14:16:54.871Z,26.50
2019-04-20T14:19:27.206Z,27.60
2019-04-20T14:21:59.793Z,28.10
2019-04-20T14:24:27.326Z,27.30
2019-04-20T14:27:10.811Z,27.30
2019-04-20T14:29:39.010Z,26.70
2019-04-20T14:32:12.088Z,26.70
2019-04-20T14:34:40.841Z,26.60
2019-04-20T14:37:15.029Z,27.60
2019-04-20T14:39:44.335Z,26.60
2019-04-20T14:42:23.334Z,26.60
2019-04-20T14:45:01.908Z,27.50
2019-04-20T14:47:29.818Z,27.10
2019-04-20T14:50:00.787Z,27.10
2019-04-20T14:52:26.374Z,27.70
2019-04-20T14:54:53.533Z,27.40
2019-04-20T14:57:27.610Z,27.40
2019-04-20T14:59:59.705Z,27.70
2019-04-20T15:02:30.174Z,27.80
2019-04-20T15:04:59.058Z,28.00
2019-04-20T15:07:26.723Z,28.60
2019-04-20T15:09:55.098Z,27.50
2019-04-20T15:12:35.933Z,27.70
2019-04-20T15:14:54.695Z,27.30
2019-04-20T15:17:30.662Z,27.00
2019-04-20T15:20:05.655Z,26.40
2019-04-20T15:22:53.686Z,27.10
2019-04-20T15:25:21.385Z,28.40
2019-04-20T15:27:49.959Z,28.80
2019-04-20T15:30:18.367Z,28.00
2019-04-20T15:32:47.089Z,28.10
2019-04-20T15:35:18.977Z,28.70
2019-04-20T15:37:44.991Z,28.90
2019-04-20T15:40:15.059Z,28.90
2019-04-20T15:42:51.514Z,29.10
2019-04-20T15:45:13.452Z,28.30
2019-04-20T15:47:41.020Z,30.00
2019-04-20T15:50:09.670Z,29.70
2019-04-20T15:52:43.225Z,30.00
2019-04-20T15:55:16.937Z,29.70
2019-04-20T15:57:36.704Z,30.10
2019-04-20T16:00:06.685Z,30.00
2019-04-20T16:02:53.783Z,29.70
2019-04-20T16:05:40.946Z,29.90
2019-04-20T16:08:28.030Z,30.40
2019-04-20T16:10:57.213Z,30.80
2019-04-20T16:13:32.316Z,30.30
2019-04-20T16:15:54.175Z,30.30
2019-04-20T16:18:22.956Z,31.10
2019-04-20T16:21:00.389Z,31.40
2019-04-20T16:23:20.826Z,32.20
2019-04-20T16:26:08.153Z,32.30
2019-04-20T16:28:35.755Z,32.10
2019-04-20T16:31:05.275Z,32.30
2019-04-20T16:33:32.555Z,32.50
2019-04-20T16:36:00.639Z,32.50
2019-04-20T16:38:30.394Z,32.20
2019-04-20T16:40:57.394Z,32.40
2019-04-20T16:43:31.944Z,32.90
2019-04-20T16:45:55.084Z,33.10
2019-04-20T16:48:24.090Z,33.50
2019-04-20T16:50:53.021Z,33.00
2019-04-20T16:53:20.499Z,33.40
2019-04-20T16:55:48.523Z,33.80
2019-04-20T16:58:16.147Z,33.40
2019-04-20T17:00:43.418Z,33.90
2019-04-20T17:03:11.168Z,34.00
2019-04-20T17:05:39.114Z,34.00
2019-04-20T17:08:07.086Z,34.30
2019-04-20T17:10:34.920Z,34.90
2019-04-20T17:13:03.971Z,34.80
2019-04-20T17:15:31.818Z,34.00
2019-04-20T17:17:59.218Z,34.60
2019-04-20T17:20:27.539Z,34.90
2019-04-20T17:22:56.276Z,35.10
2019-04-20T17:25:24.094Z,35.70
2019-04-20T17:28:11.131Z,36.00
2019-04-20T17:30:59.024Z,36.10
2019-04-20T17:33:47.404Z,36.10
2019-04-20T17:36:14.418Z,36.60
2019-04-20T17:38:37.686Z,36.90
2019-04-20T17:41:29.225Z,36.40
2019-04-20T17:43:49.422Z,36.80
2019-04-20T17:46:10.134Z,37.20
2019-04-20T17:48:42.910Z,37.10
2019-04-20T17:51:22.403Z,37.30
2019-04-20T17:54:05.327Z,37.70
2019-04-20T17:56:34.006Z,37.80
2019-04-20T17:59:01.813Z,37.80
2019-04-20T18:02:02.283Z,38.20
2019-04-20T18:04:48.784Z,38.70
2019-04-20T18:07:02.649Z,39.00
2019-04-20T18:09:50.368Z,39.50
2019-04-20T18:12:03.355Z,40.20
2019-04-20T18:14:43.273Z,40.80
2019-04-20T18:17:18.108Z,41.50
2019-04-20T18:19:45.026Z,41.80
2019-04-20T18:22:13.969Z,42.80
2019-04-20T18:25:01.813Z,43.30
2019-04-20T18:27:33.058Z,43.70
2019-04-20T18:29:58.432Z,44.10
2019-04-20T18:32:31.558Z,44.50
2019-04-20T18:35:08.433Z,45.30
2019-04-20T18:37:36.453Z,45.90
2019-04-20T18:40:11.140Z,46.80
2019-04-20T18:42:40.678Z,47.30
2019-04-20T18:45:22.542Z,47.40
2019-04-20T18:47:55.135Z,48.00
2019-04-20T18:50:14.081Z,48.40
2019-04-20T18:52:35.892Z,48.70
2019-04-20T18:55:07.483Z,49.10
2019-04-20T18:57:34.954Z,49.50
2019-04-20T19:00:06.377Z,49.40
2019-04-20T19:02:38.851Z,49.60
2019-04-20T19:05:07.280Z,50.10
2019-04-20T19:07:42.510Z,50.40
2019-04-20T19:10:14.330Z,50.90
2019-04-20T19:12:46.166Z,52.00
2019-04-20T19:15:41.383Z,51.50
2019-04-20T19:18:06.934Z,51.70
2019-04-20T19:20:28.536Z,52.00
2019-04-20T19:22:55.791Z,52.00
2019-04-20T19:25:28.196Z,52.10
2019-04-20T19:27:55.625Z,52.20
2019-04-20T19:30:34.772Z,52.40
2019-04-20T19:33:13.573Z,52.20
2019-04-20T19:35:33.918Z,52.40
2019-04-20T19:38:03.329Z,52.40
2019-04-20T19:40:37.232Z,52.80
2019-04-20T19:43:04.010Z,52.10
2019-04-20T19:45:46.695Z,52.50
2019-04-20T19:48:05.730Z,52.60
2019-04-20T19:50:53.542Z,52.40
2019-04-20T19:53:19.972Z,52.40
2019-04-20T19:55:31.110Z,51.90
2019-04-20T19:58:02.669Z,52.20
2019-04-20T20:00:47.953Z,52.20
2019-04-20T20:03:15.380Z,51.90
2019-04-20T20:05:47.955Z,52.20
2019-04-20T20:08:19.316Z,52.20
2019-04-20T20:10:45.515Z,52.60
2019-04-20T20:13:13.194Z,53.00
2019-04-20T20:15:41.750Z,53.10
2019-04-20T20:18:30.430Z,53.20
2019-04-20T20:21:03.998Z,53.50
2019-04-20T20:23:12.151Z,53.70
2019-04-20T20:25:44.837Z,54.50
2019-04-20T20:28:19.030Z,54.90
2019-04-20T20:30:55.015Z,54.80
2019-04-20T20:33:22.865Z,55.20
2019-04-20T20:35:48.064Z,55.70
2019-04-20T20:38:18.343Z,55.70
2019-04-20T20:40:45.374Z,56.10
2019-04-20T20:43:16.142Z,56.10
2019-04-20T20:45:42.166Z,56.80
2019-04-20T20:48:20.099Z,57.20
2019-04-20T20:50:53.268Z,57.40
2019-04-20T20:53:14.226Z,57.40
2019-04-20T20:55:42.830Z,57.70
2019-04-20T20:58:11.392Z,59.10
2019-04-20T21:00:45.812Z,57.40
2019-04-20T21:03:08.756Z,59.30
2019-04-20T21:05:33.575Z,59.70
2019-04-20T21:08:01.722Z,60.50
2019-04-20T21:10:35.600Z,60.60
2019-04-20T21:13:01.848Z,61.30
2019-04-20T21:15:29.883Z,62.20
2019-04-20T21:18:24.748Z,62.40
2019-04-20T21:20:49.316Z,63.70
2019-04-20T21:23:12.045Z,63.00
2019-04-20T21:25:34.523Z,63.50
2019-04-20T21:28:00.701Z,66.10
2019-04-20T21:30:34.980Z,67.70
2019-04-20T21:33:02.326Z,68.40
2019-04-20T21:35:31.324Z,70.60
2019-04-20T21:38:02.481Z,71.90
2019-04-20T21:40:33.937Z,72.70
2019-04-20T21:43:00.742Z,73.80
2019-04-20T21:45:30.011Z,75.00
2019-04-20T21:47:54.591Z,76.20
2019-04-20T21:50:36.902Z,76.00
2019-04-20T21:52:55.403Z,78.90
2019-04-20T21:55:21.768Z,79.40
2019-04-20T21:57:53.894Z,80.40
2019-04-20T22:00:42.445Z,79.50
2019-04-20T22:03:09.480Z,77.30
2019-04-20T22:05:35.102Z,81.00
2019-04-20T22:08:07.890Z,80.00
2019-04-20T22:10:33.019Z,84.70
2019-04-20T22:13:02.705Z,83.60
2019-04-20T22:15:34.642Z,86.20
2019-04-20T22:18:06.669Z,83.40
2019-04-20T22:20:35.175Z,84.50
2019-04-20T22:23:13.005Z,90.00
2019-04-20T22:25:43.551Z,91.10
2019-04-20T22:28:05.792Z,91.90
2019-04-20T22:30:33.534Z,91.30
2019-04-20T22:33:05.911Z,92.70
2019-04-20T22:35:36.060Z,91.90
2019-04-20T22:38:15.821Z,93.50
2019-04-20T22:40:42.866Z,94.10
2019-04-20T22:43:10.570Z,93.40
2019-04-20T22:45:41.142Z,94.10
2019-04-20T22:48:12.094Z,93.40
2019-04-20T22:50:51.220Z,94.60
2019-04-20T22:53:24.982Z,94.30
2019-04-20T22:55:55.129Z,94.00
2019-04-20T22:58:23.392Z,93.80
2019-04-20T23:00:42.109Z,94.80
2019-04-20T23:03:04.928Z,94.90
2019-04-20T23:05:33.021Z,94.50
2019-04-20T23:08:00.357Z,94.20
2019-04-20T23:10:33.983Z,94.30
2019-04-20T23:12:59.548Z,94.20
2019-04-20T23:15:26.411Z,95.70
2019-04-20T23:17:53.994Z,94.80
2019-04-20T23:20:26.762Z,96.30
2019-04-20T23:22:51.331Z,96.60
2019-04-20T23:25:20.939Z,96.40
2019-04-20T23:27:51.172Z,96.30
2019-04-20T23:30:23.388Z,96.90
2019-04-20T23:32:46.815Z,97.30
2019-04-20T23:35:18.556Z,98.20
2019-04-20T23:37:43.761Z,97.50
2019-04-20T23:40:15.030Z,97.80
2019-04-20T23:43:02.005Z,97.30
2019-04-20T23:45:46.372Z,97.80
2019-04-20T23:48:22.756Z,98.10
2019-04-20T23:51:08.366Z,97.80
2019-04-20T23:53:37.265Z,97.90
2019-04-20T23:55:49.858Z,98.80
2019-04-20T23:58:18.170Z,98.70
